createdAt,value
2023-05-12T00:00:28.049Z,2.70
2023-05-12T00:03:30.407Z,3.08
2023-05-12T00:06:32.800Z,3.03
2023-05-12T00:09:35.025Z,3.20
2023-05-12T00:12:37.253Z,3.28
2023-05-12T00:15:39.479Z,3.10
2023-05-12T00:18:41.683Z,3.05
2023-05-12T00:21:44.221Z,3.08
2023-05-12T00:24:46.513Z,2.97
2023-05-12T00:27:48.754Z,3.13
2023-05-12T00:30:51.017Z,3.70
2023-05-12T00:33:53.254Z,3.13
2023-05-12T00:36:55.496Z,3.13
2023-05-12T00:39:57.779Z,3.45
2023-05-12T00:42:59.965Z,3.28
2023-05-12T00:46:04.759Z,2.83
2023-05-12T00:49:07.948Z,3.22
2023-05-12T00:52:10.227Z,3.00
2023-05-12T00:55:13.640Z,3.03
2023-05-12T00:58:15.856Z,3.08
2023-05-12T01:01:18.080Z,2.67
2023-05-12T01:04:22.216Z,2.70
2023-05-12T01:07:25.612Z,2.65
2023-05-12T01:10:28.473Z,2.90
2023-05-12T01:13:30.745Z,2.58
2023-05-12T01:16:37.897Z,3.13
2023-05-12T01:19:49.313Z,3.10
2023-05-12T01:22:51.844Z,3.35
2023-05-12T01:25:54.878Z,3.50
2023-05-12T01:28:57.430Z,2.90
2023-05-12T01:32:00.907Z,3.30
2023-05-12T01:35:03.204Z,3.00
2023-05-12T01:38:07.793Z,3.35
2023-05-12T01:41:13.537Z,3.38
2023-05-12T01:44:15.792Z,3.40
2023-05-12T01:47:18.054Z,3.17
2023-05-12T01:50:27.865Z,3.30
2023-05-12T01:53:30.734Z,3.40
2023-05-12T01:56:33.016Z,3.45
2023-05-12T01:59:36.204Z,3.50
2023-05-12T02:02:42.888Z,4.07
2023-05-12T02:05:46.615Z,3.58
2023-05-12T02:08:48.889Z,3.33
2023-05-12T02:11:52.078Z,2.88
2023-05-12T02:14:54.254Z,3.22
2023-05-12T02:17:58.387Z,3.43
2023-05-12T02:21:00.838Z,3.40
2023-05-12T02:24:04.821Z,3.28
2023-05-12T02:27:07.119Z,3.00
2023-05-12T02:30:09.641Z,3.30
2023-05-12T02:33:12.332Z,3.00
2023-05-12T02:36:14.504Z,3.00
2023-05-12T02:39:16.761Z,2.85
2023-05-12T02:42:19.173Z,3.05
2023-05-12T02:45:21.380Z,2.50
2023-05-12T02:48:23.584Z,2.70
2023-05-12T02:51:25.951Z,2.88
2023-05-12T02:54:28.270Z,3.28
2023-05-12T02:57:34.072Z,3.20
2023-05-12T03:00:37.010Z,2.95
2023-05-12T03:03:39.574Z,3.17
2023-05-12T03:06:42.035Z,3.03
2023-05-12T03:09:44.231Z,3.63
2023-05-12T03:12:46.537Z,3.28
2023-05-12T03:15:48.823Z,2.85
2023-05-12T03:18:50.997Z,2.97
2023-05-12T03:21:53.595Z,2.92
2023-05-12T03:24:55.839Z,3.17
2023-05-12T03:27:58.715Z,2.90
2023-05-12T03:31:01.116Z,3.17
2023-05-12T03:34:03.399Z,3.40
2023-05-12T03:37:05.657Z,3.47
2023-05-12T03:40:08.229Z,4.13
2023-05-12T03:43:10.413Z,3.00
2023-05-12T03:46:12.951Z,3.17
2023-05-12T03:49:15.240Z,3.63
2023-05-12T03:52:17.455Z,3.60
2023-05-12T03:55:20.437Z,3.80
2023-05-12T03:58:23.353Z,3.80
2023-05-12T04:01:25.698Z,3.47
2023-05-12T04:04:27.932Z,3.07
2023-05-12T04:07:30.119Z,3.60
2023-05-12T04:10:32.328Z,3.42
2023-05-12T04:13:34.581Z,3.10
2023-05-12T04:16:36.967Z,2.83
2023-05-12T04:19:39.251Z,3.60
2023-05-12T04:22:41.653Z,3.63
2023-05-12T04:25:44.060Z,2.80
2023-05-12T04:28:47.789Z,3.22
2023-05-12T04:31:50.582Z,2.85
2023-05-12T04:34:56.199Z,3.03
2023-05-12T04:38:01.358Z,3.33
2023-05-12T04:41:03.762Z,3.08
2023-05-12T04:44:06.278Z,2.78
2023-05-12T04:47:09.102Z,2.85
2023-05-12T04:50:11.540Z,3.10
2023-05-12T04:53:15.107Z,3.97
2023-05-12T04:56:17.412Z,3.25
2023-05-12T04:59:20.754Z,3.17
2023-05-12T05:02:25.841Z,3.10
2023-05-12T05:05:28.072Z,3.47
2023-05-12T05:08:31.911Z,3.13
2023-05-12T05:11:34.290Z,3.15
2023-05-12T05:14:37.307Z,3.05
2023-05-12T05:17:39.707Z,3.03
2023-05-12T05:20:48.147Z,3.20
2023-05-12T05:23:58.260Z,3.22
2023-05-12T05:27:00.768Z,3.13
2023-05-12T05:30:03.125Z,3.00
2023-05-12T05:33:06.884Z,2.97
2023-05-12T05:36:09.466Z,3.10
2023-05-12T05:39:12.838Z,3.10
2023-05-12T05:42:15.885Z,3.20
2023-05-12T05:45:18.766Z,3.30
2023-05-12T05:48:26.223Z,3.97
2023-05-12T05:51:29.810Z,3.60
2023-05-12T05:54:32.108Z,4.20
2023-05-12T05:57:35.166Z,3.83
2023-05-12T06:00:38.357Z,3.67
2023-05-12T06:03:43.161Z,3.50
2023-05-12T06:06:45.798Z,3.67
2023-05-12T06:09:48.540Z,3.28
2023-05-12T06:12:50.980Z,4.03
2023-05-12T06:15:53.250Z,3.40
2023-05-12T06:18:55.731Z,3.90
2023-05-12T06:21:58.197Z,3.53
2023-05-12T06:25:01.132Z,4.03
2023-05-12T06:28:03.387Z,3.63
2023-05-12T06:31:08.965Z,3.90
2023-05-12T06:34:12.209Z,4.03
2023-05-12T06:37:16.607Z,3.87
2023-05-12T06:40:18.940Z,3.58
2023-05-12T06:43:21.341Z,3.70
2023-05-12T06:46:24.059Z,3.83
2023-05-12T06:49:30.466Z,4.20
2023-05-12T06:52:35.942Z,3.93
2023-05-12T06:55:39.144Z,3.90
2023-05-12T06:58:42.230Z,3.88
2023-05-12T07:01:45.789Z,3.78
2023-05-12T07:04:48.159Z,4.32
2023-05-12T07:07:50.398Z,4.30
2023-05-12T07:10:54.423Z,4.40
2023-05-12T07:14:00.433Z,3.97
2023-05-12T07:17:07.231Z,3.47
2023-05-12T07:20:09.952Z,3.72
2023-05-12T07:23:12.782Z,3.20
2023-05-12T07:26:16.055Z,3.10
2023-05-12T07:29:19.304Z,3.10
2023-05-12T07:32:22.014Z,3.58
2023-05-12T07:35:24.265Z,3.15
2023-05-12T07:38:26.451Z,3.30
2023-05-12T07:41:28.734Z,3.40
2023-05-12T07:44:33.277Z,3.50
2023-05-12T07:47:35.593Z,2.67
2023-05-12T07:50:40.513Z,2.78
2023-05-12T07:53:42.801Z,2.73
2023-05-12T07:56:45.207Z,2.72
2023-05-12T07:59:48.163Z,2.35
2023-05-12T08:02:51.424Z,2.83
2023-05-12T08:05:54.081Z,3.40
2023-05-12T08:08:58.513Z,3.00
2023-05-12T08:12:01.531Z,3.30
2023-05-12T08:15:03.866Z,3.88
2023-05-12T08:18:06.264Z,3.58
2023-05-12T08:21:08.834Z,3.80
2023-05-12T08:24:11.018Z,3.90
2023-05-12T08:27:13.324Z,4.00
2023-05-12T08:30:16.060Z,4.10
2023-05-12T08:33:18.356Z,3.78
2023-05-12T08:36:20.649Z,4.57
2023-05-12T08:39:23.018Z,4.33
2023-05-12T08:42:42.583Z,4.20
2023-05-12T08:45:45.843Z,4.65
2023-05-12T08:48:58.488Z,4.78
2023-05-12T08:52:12.769Z,5.10
2023-05-12T08:55:21.699Z,3.83
2023-05-12T09:01:54.786Z,4.30
2023-05-12T09:04:58.441Z,4.07
2023-05-12T09:08:01.773Z,5.32
2023-05-12T09:11:04.545Z,5.70
2023-05-12T09:14:15.900Z,5.57
2023-05-12T09:17:18.158Z,5.15
2023-05-12T09:20:30.322Z,5.80
2023-05-12T09:23:33.115Z,6.28
2023-05-12T09:26:56.057Z,5.33
2023-05-12T09:29:59.841Z,7.72
2023-05-12T09:33:06.605Z,6.00
2023-05-12T09:36:09.588Z,6.35
2023-05-12T09:39:13.576Z,8.75
2023-05-12T09:42:15.901Z,8.07
2023-05-12T09:45:19.772Z,6.65
2023-05-12T09:48:23.203Z,7.03
2023-05-12T09:51:30.499Z,6.43
2023-05-12T09:54:33.980Z,6.43
2023-05-12T09:57:44.989Z,7.13
2023-05-12T10:03:57.790Z,7.75
2023-05-12T10:07:00.258Z,7.35
2023-05-12T10:10:04.520Z,8.38
2023-05-12T10:13:07.041Z,7.60
2023-05-12T10:16:09.697Z,7.60
2023-05-12T10:19:13.456Z,7.38
2023-05-12T10:22:16.230Z,8.13
2023-05-12T10:25:18.757Z,8.88
2023-05-12T10:28:22.683Z,7.03
2023-05-12T10:31:27.959Z,8.30
2023-05-12T10:34:34.121Z,7.35
2023-05-12T10:37:37.612Z,8.05
2023-05-12T10:40:51.424Z,6.75
2023-05-12T10:43:53.677Z,7.17
2023-05-12T10:47:01.934Z,7.18
2023-05-12T10:50:04.321Z,7.93
2023-05-12T10:53:11.321Z,8.00
2023-05-12T10:56:14.297Z,8.52
2023-05-12T10:59:20.952Z,8.10
2023-05-12T11:02:29.898Z,7.45
2023-05-12T11:05:35.882Z,7.18
2023-05-12T11:08:40.007Z,7.13
2023-05-12T11:11:43.825Z,7.30
2023-05-12T11:14:46.656Z,6.93
2023-05-12T11:17:49.088Z,7.13
2023-05-12T11:20:51.568Z,7.30
2023-05-12T11:23:54.847Z,7.72
2023-05-12T11:26:57.404Z,7.15
2023-05-12T11:30:01.117Z,6.70
2023-05-12T11:33:03.775Z,6.40
2023-05-12T11:36:06.803Z,5.80
2023-05-12T11:39:28.312Z,5.95
2023-05-12T11:42:30.644Z,6.47
2023-05-12T11:45:34.672Z,5.77
2023-05-12T11:48:36.926Z,6.50
2023-05-12T11:51:43.131Z,6.15
2023-05-12T11:55:11.618Z,5.95
2023-05-12T11:58:18.352Z,4.57
2023-05-12T12:01:20.607Z,5.60
2023-05-12T12:04:33.325Z,5.68
2023-05-12T12:07:36.607Z,5.32
2023-05-12T12:10:39.579Z,7.20
2023-05-12T12:13:47.424Z,5.72
2023-05-12T12:16:49.588Z,5.20
2023-05-12T12:19:51.808Z,5.40
2023-05-12T12:22:54.230Z,6.00
2023-05-12T12:25:56.500Z,6.10
2023-05-12T12:28:58.753Z,5.45
2023-05-12T12:32:01.111Z,5.40
2023-05-12T12:35:06.390Z,5.43
2023-05-12T12:38:08.919Z,4.70
2023-05-12T12:41:11.169Z,5.68
2023-05-12T12:44:13.510Z,6.55
2023-05-12T12:47:16.012Z,5.50
2023-05-12T12:50:18.243Z,5.55
2023-05-12T12:53:20.604Z,5.78
2023-05-12T12:56:24.380Z,5.60
2023-05-12T12:59:27.702Z,6.20
2023-05-12T13:02:30.111Z,5.67
2023-05-12T13:05:32.506Z,5.85
2023-05-12T13:08:35.117Z,5.13
2023-05-12T13:11:37.520Z,5.38
2023-05-12T13:14:39.812Z,5.32
2023-05-12T13:17:42.078Z,5.00
2023-05-12T13:20:44.391Z,5.38
2023-05-12T13:23:46.565Z,5.65
2023-05-12T13:26:48.775Z,5.10
2023-05-12T13:29:51.081Z,5.90
2023-05-12T13:32:53.467Z,5.33
2023-05-12T13:35:55.695Z,5.75
2023-05-12T13:38:57.931Z,4.82
2023-05-12T13:42:00.165Z,5.95
2023-05-12T13:45:02.875Z,6.15
2023-05-12T13:48:05.560Z,5.20
2023-05-12T13:51:07.759Z,4.85
2023-05-12T13:54:10.002Z,6.20
2023-05-12T13:57:12.796Z,5.10
2023-05-12T14:00:17.374Z,6.15
2023-05-12T14:03:19.805Z,4.97
2023-05-12T14:06:21.972Z,5.53
2023-05-12T14:09:24.913Z,5.90
2023-05-12T14:12:27.382Z,6.50
2023-05-12T14:15:40.490Z,7.60
2023-05-12T14:18:49.939Z,5.83
2023-05-12T14:21:52.190Z,6.50
2023-05-12T14:24:55.871Z,5.63
2023-05-12T14:27:58.327Z,5.55
2023-05-12T14:31:01.972Z,6.60
2023-05-12T14:34:04.487Z,5.00
2023-05-12T14:37:06.684Z,5.20
2023-05-12T14:40:09.203Z,5.05
2023-05-12T14:43:11.668Z,4.82
2023-05-12T14:46:13.920Z,5.03
2023-05-12T14:49:20.672Z,4.97
2023-05-12T14:52:23.237Z,5.20
2023-05-12T14:55:25.560Z,5.60
2023-05-12T14:58:27.989Z,5.13
2023-05-12T15:01:30.353Z,5.43
2023-05-12T15:04:32.570Z,5.63
2023-05-12T15:07:35.354Z,4.55
2023-05-12T15:10:37.593Z,4.88
2023-05-12T15:13:39.828Z,5.00
2023-05-12T15:16:42.327Z,5.15
2023-05-12T15:19:44.772Z,5.33
2023-05-12T15:22:47.609Z,5.45
2023-05-12T15:25:49.887Z,6.05
2023-05-12T15:28:52.138Z,5.50
2023-05-12T15:31:55.083Z,5.60
2023-05-12T15:35:01.950Z,5.90
2023-05-12T15:38:04.595Z,5.70
2023-05-12T15:41:07.199Z,4.85
2023-05-12T15:44:09.854Z,5.38
2023-05-12T15:47:12.477Z,6.10
2023-05-12T15:50:19.816Z,5.27
2023-05-12T15:53:22.606Z,5.40
2023-05-12T15:56:24.947Z,5.20
2023-05-12T15:59:27.113Z,5.47
2023-05-12T16:02:29.541Z,5.93
2023-05-12T16:05:34.109Z,5.57
2023-05-12T16:08:36.479Z,5.43
2023-05-12T16:11:38.760Z,5.13
2023-05-12T16:14:41.053Z,5.07
2023-05-12T16:17:43.608Z,4.82
2023-05-12T16:20:47.520Z,4.53
2023-05-12T16:23:49.811Z,4.30
2023-05-12T16:26:52.243Z,4.70
2023-05-12T16:29:55.010Z,4.20
2023-05-12T16:32:57.631Z,4.85
2023-05-12T16:35:59.907Z,5.10
2023-05-12T16:39:02.258Z,4.45
2023-05-12T16:42:04.672Z,5.15
2023-05-12T16:45:07.202Z,5.50
2023-05-12T16:48:09.425Z,5.28
2023-05-12T16:51:11.643Z,5.27
2023-05-12T16:54:13.942Z,5.75
2023-05-12T16:57:16.171Z,4.93
2023-05-12T17:00:18.525Z,5.78
2023-05-12T17:03:20.880Z,6.03
2023-05-12T17:06:23.207Z,5.93
2023-05-12T17:09:25.544Z,5.70
2023-05-12T17:12:27.784Z,5.70
2023-05-12T17:15:30.468Z,6.30
2023-05-12T17:18:32.715Z,5.50
2023-05-12T17:21:34.895Z,6.73
2023-05-12T17:24:37.172Z,5.65
2023-05-12T17:27:39.718Z,6.40
2023-05-12T17:30:41.953Z,5.78
2023-05-12T17:33:44.210Z,5.15
2023-05-12T17:36:46.583Z,6.20
2023-05-12T17:39:50.523Z,5.47
2023-05-12T17:42:53.250Z,6.07
2023-05-12T17:45:56.020Z,6.03
2023-05-12T17:48:58.229Z,6.10
2023-05-12T17:52:00.449Z,6.17
2023-05-12T17:55:02.983Z,6.20
2023-05-12T17:58:05.324Z,6.28
2023-05-12T18:01:07.658Z,6.45
2023-05-12T18:04:10.099Z,7.15
2023-05-12T18:07:12.405Z,7.03
2023-05-12T18:10:14.591Z,7.13
2023-05-12T18:13:16.775Z,6.18
2023-05-12T18:16:28.423Z,7.47
2023-05-12T18:19:31.790Z,7.28
2023-05-12T18:22:33.947Z,7.00
2023-05-12T18:25:36.316Z,6.68
2023-05-12T18:28:38.689Z,6.57
2023-05-12T18:31:43.081Z,6.05
2023-05-12T18:34:46.832Z,5.60
2023-05-12T18:37:49.577Z,5.70
2023-05-12T18:40:51.905Z,5.47
2023-05-12T18:43:54.444Z,5.68
2023-05-12T18:46:57.084Z,6.55
2023-05-12T18:49:59.314Z,6.22
2023-05-12T18:53:01.552Z,5.67
2023-05-12T18:56:03.964Z,6.13
2023-05-12T18:59:06.421Z,5.38
2023-05-12T19:02:09.157Z,6.57
2023-05-12T19:05:11.498Z,6.32
2023-05-12T19:08:13.770Z,6.33
2023-05-12T19:11:15.959Z,7.20
2023-05-12T19:14:18.277Z,6.43
2023-05-12T19:17:20.614Z,6.38
2023-05-12T19:20:23.159Z,7.13
2023-05-12T19:23:25.357Z,6.50
2023-05-12T19:26:27.816Z,6.63
2023-05-12T19:29:30.151Z,6.97
2023-05-12T19:32:33.089Z,6.88
2023-05-12T19:35:36.245Z,7.93
2023-05-12T19:38:40.238Z,7.30
2023-05-12T19:41:42.583Z,6.88
2023-05-12T19:44:44.833Z,7.35
2023-05-12T19:47:47.138Z,7.85
2023-05-12T19:50:49.430Z,6.85
2023-05-12T19:53:51.719Z,7.13
2023-05-12T19:56:53.901Z,7.60
2023-05-12T19:59:56.247Z,8.52
2023-05-12T20:02:58.660Z,7.63
2023-05-12T20:06:00.914Z,7.85
2023-05-12T20:09:03.138Z,7.87
2023-05-12T20:12:08.031Z,9.05
2023-05-12T20:15:11.542Z,9.05
2023-05-12T20:18:15.677Z,8.57
2023-05-12T20:21:17.972Z,9.15
2023-05-12T20:24:20.174Z,9.70
2023-05-12T20:27:22.371Z,9.60
2023-05-12T20:30:24.905Z,10.07
2023-05-12T20:33:27.146Z,9.30
2023-05-12T20:36:29.280Z,9.23
2023-05-12T20:39:31.526Z,9.23
2023-05-12T20:42:33.695Z,8.82
2023-05-12T20:45:36.363Z,8.52
2023-05-12T20:48:39.509Z,9.57
2023-05-12T20:51:41.782Z,8.48
2023-05-12T20:54:44.301Z,8.53
2023-05-12T20:57:46.505Z,8.85
2023-05-12T21:00:48.789Z,8.50
2023-05-12T21:03:51.070Z,8.18
2023-05-12T21:06:53.740Z,8.07
2023-05-12T21:09:57.378Z,8.87
2023-05-12T21:12:59.592Z,8.13
2023-05-12T21:16:01.775Z,7.40
2023-05-12T21:19:04.194Z,8.18
2023-05-12T21:22:07.232Z,7.88
2023-05-12T21:25:10.088Z,7.83
2023-05-12T21:28:12.357Z,8.50
2023-05-12T21:31:14.531Z,8.30
2023-05-12T21:34:16.822Z,7.60
2023-05-12T21:37:18.978Z,7.55
2023-05-12T21:40:21.360Z,8.20
2023-05-12T21:43:23.763Z,7.68
2023-05-12T21:46:26.121Z,8.50
2023-05-12T21:49:28.422Z,7.85
2023-05-12T21:52:30.674Z,8.40
2023-05-12T21:55:32.882Z,8.60
2023-05-12T21:58:35.034Z,8.88
2023-05-12T22:01:37.314Z,8.43
2023-05-12T22:04:39.619Z,8.50
2023-05-12T22:07:42.056Z,7.60
2023-05-12T22:10:44.278Z,7.53
2023-05-12T22:13:46.488Z,8.48
2023-05-12T22:16:48.744Z,8.30
2023-05-12T22:19:51.042Z,7.88
2023-05-12T22:22:53.251Z,6.35
2023-05-12T22:25:56.096Z,6.83
2023-05-12T22:28:58.342Z,6.53
2023-05-12T22:32:00.929Z,6.57
2023-05-12T22:35:03.231Z,6.53
2023-05-12T22:38:05.961Z,6.97
2023-05-12T22:41:08.194Z,7.20
2023-05-12T22:44:10.436Z,7.50
2023-05-12T22:47:12.752Z,6.97
2023-05-12T22:50:14.977Z,6.85
2023-05-12T22:53:17.130Z,7.13
2023-05-12T22:56:19.320Z,6.47
2023-05-12T22:59:21.598Z,7.47
2023-05-12T23:02:23.829Z,8.18
2023-05-12T23:05:26.010Z,7.20
2023-05-12T23:08:28.241Z,6.55
2023-05-12T23:11:30.406Z,7.60
2023-05-12T23:14:32.693Z,6.70
2023-05-12T23:17:34.968Z,6.68
2023-05-12T23:20:37.215Z,6.60
2023-05-12T23:23:39.529Z,8.43
2023-05-12T23:26:41.735Z,7.23
2023-05-12T23:29:43.958Z,6.70
2023-05-12T23:32:46.578Z,7.60
2023-05-12T23:35:49.025Z,6.70
2023-05-12T23:38:53.675Z,6.85
2023-05-12T23:41:55.995Z,6.80
2023-05-12T23:44:58.232Z,7.38
2023-05-12T23:48:00.942Z,7.18
2023-05-12T23:51:03.575Z,7.07
2023-05-12T23:54:05.829Z,6.40
2023-05-12T23:57:08.123Z,6.30
